Elgin, Pennsylvania
Current Conditions -  °F | °C
As of 2:51 AM on Saturday 25 Oct 2014 (Local Time) from KERI Reporting Station
Overcast Overcast  
Wind Chill: 53°   Ceiling: 4600
Heat Index: 53°   Visibility: 10mi
Dew Point: 43°   Wind: 7mph
Humidity: 69%   Direction: 210°SSW
Pressure: 29.94"   Gusts: NA
Location:  41.9°N, 79.74°W
Report Text: KERI 250651Z AUTO 21006KT 10SM OVC046 12/06 A2994 RMK AO2 SLP138 T01170061
Loading
Personal Weather Stations






























Interactive Weather Map New forecast layout! Learn more

10-Day Weather Forecast

Advertisements
Track Severe Weather on mobile